Time;durP1;ratioP1;P1;durP2;ratioP2;P2;SDS_P1;SDS_P2;PMS_P1;PMS_P2;Temp;Humidity;BMP_temperature;BMP_pressure;BME280_temperature;BME280_humidity;BME280_pressure;Samples;Min_cycle;Max_cycle;Signal;HPM_P1;HPM_P2
2022/08/11 00:02:02;;;;;;;5.90;2.70;;;;;;;;;;5044301;28;20063;-68
2022/08/11 00:04:36;;;;;;;6.90;2.65;;;;;;;;;;5071540;28;20067;-68
2022/08/11 00:07:10;;;;;;;10.18;4.45;;;;;;;;;;5011377;28;20066;-69
2022/08/11 00:09:41;;;;;;;9.38;3.42;;;;;;;;;;4972542;28;20054;-69
2022/08/11 00:12:16;;;;;;;9.40;3.63;;;;;;;;;;4972303;28;20059;-69
2022/08/11 00:14:56;;;;;;;8.05;3.15;;;;;;;;;;4973002;28;20063;-68
2022/08/11 00:17:31;;;;;;;4.57;2.13;;;;;;;;;;4933616;29;20558;-68
2022/08/11 00:20:08;;;;;;;6.03;2.70;;;;;;;;;;4933904;29;20060;-69
2022/08/11 00:22:46;;;;;;;9.27;3.10;;;;;;;;;;4895911;29;20052;-69
2022/08/11 00:25:20;;;;;;;7.30;3.45;;;;;;;;;;4845288;29;20056;-69
2022/08/11 00:27:51;;;;;;;6.82;2.80;;;;;;;;;;4877447;29;20061;-69
2022/08/11 00:30:22;;;;;;;6.80;2.80;;;;;;;;;;4877194;29;20220;-68
2022/08/11 00:32:57;;;;;;;9.10;4.13;;;;;;;;;;4893254;29;20061;-69
2022/08/11 00:35:31;;;;;;;10.27;5.28;;;;;;;;;;4864577;29;20076;-69
2022/08/11 00:38:31;;;;;;;9.88;3.83;;;;;;;;;;4896081;29;20612;-69
2022/08/11 00:41:10;;;;;;;4.93;2.72;;;;;;;;;;4876079;29;20064;-69
2022/08/11 00:44:22;;;;;;;5.93;2.60;;;;;;;;;;4848471;29;20072;-69
2022/08/11 00:47:02;;;;;;;4.38;1.75;;;;;;;;;;4870145;29;20056;-69
2022/08/11 00:50:09;;;;;;;4.50;1.80;;;;;;;;;;4895253;29;20064;-69
2022/08/11 00:53:07;;;;;;;4.35;1.73;;;;;;;;;;4895445;29;20674;-69
2022/08/11 00:56:05;;;;;;;4.07;1.63;;;;;;;;;;4923390;29;20512;-69
2022/08/11 00:58:48;;;;;;;3.05;1.42;;;;;;;;;;4933189;29;20063;-69
2022/08/11 01:01:30;;;;;;;4.88;2.00;;;;;;;;;;4902335;29;20050;-69
2022/08/11 01:04:19;;;;;;;4.50;2.50;;;;;;;;;;4952275;29;20051;-70
2022/08/11 01:07:06;;;;;;;4.43;2.10;;;;;;;;;;4936647;29;20055;-69
2022/08/11 01:09:52;;;;;;;4.32;1.90;;;;;;;;;;4963087;28;20056;-69
2022/08/11 01:13:07;;;;;;;4.20;1.83;;;;;;;;;;4990446;28;20072;-69
2022/08/11 01:15:52;;;;;;;3.75;1.52;;;;;;;;;;4952512;28;20155;-69
2022/08/11 01:18:34;;;;;;;4.47;1.63;;;;;;;;;;4956246;28;20058;-69
2022/08/11 01:21:36;;;;;;;4.00;1.98;;;;;;;;;;4971287;28;20411;-69
2022/08/11 01:24:36;;;;;;;5.22;2.22;;;;;;;;;;4971346;28;20511;-69
2022/08/11 01:27:16;;;;;;;4.97;2.10;;;;;;;;;;4980265;28;20065;-69
2022/08/11 01:30:06;;;;;;;4.32;1.85;;;;;;;;;;4990439;28;20058;-69
2022/08/11 01:33:12;;;;;;;3.78;1.60;;;;;;;;;;4990523;28;20057;-69
2022/08/11 01:35:58;;;;;;;4.10;1.52;;;;;;;;;;4990265;28;20391;-68
2022/08/11 01:38:41;;;;;;;2.05;1.00;;;;;;;;;;4990606;28;20085;-69
2022/08/11 01:44:36;;;;;;;3.88;1.77;;;;;;;;;;4990366;28;20554;-69
2022/08/11 01:44:54;;;;;;;4.05;1.33;;;;;;;;;;4990373;28;20452;-69
2022/08/11 01:47:52;;;;;;;3.03;1.40;;;;;;;;;;4951729;29;20416;-68
2022/08/11 01:50:37;;;;;;;3.00;1.42;;;;;;;;;;4951746;29;20092;-69
2022/08/11 01:53:26;;;;;;;3.92;1.48;;;;;;;;;;4980018;28;20462;-69
2022/08/11 01:56:13;;;;;;;5.95;2.03;;;;;;;;;;4989979;28;20054;-69
2022/08/11 01:58:44;;;;;;;6.22;1.80;;;;;;;;;;4990103;28;20057;-69
2022/08/11 02:01:39;;;;;;;3.90;2.00;;;;;;;;;;4990099;28;20461;-69
2022/08/11 02:04:43;;;;;;;3.33;1.40;;;;;;;;;;4974012;28;20050;-68
2022/08/11 02:07:50;;;;;;;3.05;1.30;;;;;;;;;;4977160;28;20050;-67
2022/08/11 02:13:33;;;;;;;3.75;1.48;;;;;;;;;;4992703;28;20054;-69
2022/08/11 02:16:10;;;;;;;3.47;1.30;;;;;;;;;;4961209;28;20050;-68
2022/08/11 02:25:20;;;;;;;4.50;1.65;;;;;;;;;;5005935;28;20115;-69
2022/08/11 02:28:07;;;;;;;5.57;1.65;;;;;;;;;;5029100;28;20050;-69
2022/08/11 02:33:21;;;;;;;2.83;1.33;;;;;;;;;;5047076;28;20063;-68
2022/08/11 02:34:27;;;;;;;3.20;1.40;;;;;;;;;;5048629;28;20049;-69
2022/08/11 02:37:02;;;;;;;8.02;2.60;;;;;;;;;;4989306;28;20062;-69
2022/08/11 02:39:45;;;;;;;7.10;3.33;;;;;;;;;;4989452;28;20077;-69
2022/08/11 02:42:25;;;;;;;5.47;1.83;;;;;;;;;;4988988;28;20065;-69
2022/08/11 02:45:28;;;;;;;10.27;4.32;;;;;;;;;;4989222;28;20461;-68
2022/08/11 02:51:42;;;;;;;5.47;2.28;;;;;;;;;;4971576;28;20051;-68
2022/08/11 02:54:41;;;;;;;6.28;2.05;;;;;;;;;;4969782;28;20051;-69
2022/08/11 02:57:27;;;;;;;6.45;2.65;;;;;;;;;;4950563;29;20078;-68
2022/08/11 02:59:58;;;;;;;4.50;2.05;;;;;;;;;;4969264;28;20558;-69
2022/08/11 03:02:46;;;;;;;4.72;2.10;;;;;;;;;;4969488;28;20054;-69
2022/08/11 03:05:51;;;;;;;4.03;1.42;;;;;;;;;;4969456;28;20082;-69
2022/08/11 03:08:36;;;;;;;5.63;1.90;;;;;;;;;;4911782;29;20087;-69
2022/08/11 03:18:45;;;;;;;6.25;3.08;;;;;;;;;;5149683;27;20039;-68
2022/08/11 03:21:28;;;;;;;3.20;2.10;;;;;;;;;;5025455;28;20518;-69
2022/08/11 03:24:49;;;;;;;4.93;2.03;;;;;;;;;;5025288;28;20053;-69
2022/08/11 03:27:51;;;;;;;3.00;1.60;;;;;;;;;;4966715;28;20082;-69
2022/08/11 03:30:46;;;;;;;4.22;1.73;;;;;;;;;;4912332;29;20059;-68
2022/08/11 03:36:40;;;;;;;6.05;1.90;;;;;;;;;;4928388;29;20068;-69
2022/08/11 03:39:49;;;;;;;5.38;2.22;;;;;;;;;;4928134;29;20762;-69
2022/08/11 03:42:36;;;;;;;4.95;2.03;;;;;;;;;;4908956;29;20059;-69
2022/08/11 03:45:11;;;;;;;6.95;2.55;;;;;;;;;;4889911;29;20056;-69
2022/08/11 03:48:08;;;;;;;7.05;2.88;;;;;;;;;;4890175;29;20064;-69
2022/08/11 03:50:42;;;;;;;4.55;1.73;;;;;;;;;;4890122;29;20060;-68
2022/08/11 03:53:49;;;;;;;4.57;2.03;;;;;;;;;;4890012;29;20546;-68
2022/08/11 03:56:20;;;;;;;3.47;1.60;;;;;;;;;;4857055;29;20062;-69
2022/08/11 03:58:57;;;;;;;5.43;2.17;;;;;;;;;;4905476;29;20052;-69
2022/08/11 04:01:48;;;;;;;8.00;2.90;;;;;;;;;;4908544;29;20053;-69
2022/08/11 04:04:55;;;;;;;7.40;2.55;;;;;;;;;;4880982;29;20095;-69
2022/08/11 04:08:02;;;;;;;6.57;2.33;;;;;;;;;;4960910;28;20054;-68
2022/08/11 04:11:11;;;;;;;5.82;2.20;;;;;;;;;;4966029;28;20051;-68
2022/08/11 04:15:58;;;;;;;5.95;1.90;;;;;;;;;;4965517;28;20069;-69
2022/08/11 04:17:19;;;;;;;4.43;1.95;;;;;;;;;;4965927;28;20055;-68
2022/08/11 04:20:24;;;;;;;2.33;1.50;;;;;;;;;;4989151;28;20050;-69
2022/08/11 04:23:26;;;;;;;3.20;1.70;;;;;;;;;;5002402;28;20472;-69
2022/08/11 04:26:22;;;;;;;4.68;2.38;;;;;;;;;;5030361;28;20502;-69
2022/08/11 04:29:03;;;;;;;2.80;1.65;;;;;;;;;;4978321;28;20053;-70
2022/08/11 04:32:10;;;;;;;3.05;1.50;;;;;;;;;;5010833;28;20054;-68
2022/08/11 04:35:02;;;;;;;4.00;1.85;;;;;;;;;;5010953;28;20058;-69
2022/08/11 04:37:52;;;;;;;4.63;1.65;;;;;;;;;;4998875;28;20045;-69
2022/08/11 04:40:42;;;;;;;3.35;2.08;;;;;;;;;;5074272;28;20056;-69
2022/08/11 04:43:45;;;;;;;4.35;1.80;;;;;;;;;;5001246;28;20044;-70
2022/08/11 05:01:39;;;;;;;4.72;1.60;;;;;;;;;;5050434;28;20049;-70
2022/08/11 05:03:08;;;;;;;4.35;1.60;;;;;;;;;;4895098;29;20063;-69
2022/08/11 05:05:45;;;;;;;2.97;1.60;;;;;;;;;;4895051;29;20049;-69
2022/08/11 05:08:43;;;;;;;5.30;1.35;;;;;;;;;;4895124;29;20766;-69
2022/08/11 05:11:35;;;;;;;2.80;1.50;;;;;;;;;;4879338;29;20059;-70
2022/08/11 05:34:53;;;;;;;3.85;2.30;;;;;;;;;;5009744;28;20057;-70
2022/08/11 05:37:29;;;;;;;3.55;1.42;;;;;;;;;;5008946;28;20065;-70
2022/08/11 05:57:37;;;;;;;2.92;1.48;;;;;;;;;;5069113;28;20047;-69
2022/08/11 06:00:23;;;;;;;3.70;2.83;;;;;;;;;;5068739;28;20049;-70
2022/08/11 06:02:55;;;;;;;5.95;1.73;;;;;;;;;;5069178;28;20052;-69
2022/08/11 06:05:42;;;;;;;3.75;1.90;;;;;;;;;;5013134;28;20049;-70
2022/08/11 06:08:13;;;;;;;4.25;1.58;;;;;;;;;;5069007;28;20048;-69
2022/08/11 06:10:46;;;;;;;3.55;1.45;;;;;;;;;;5019384;28;20044;-70
2022/08/11 06:13:17;;;;;;;2.08;1.30;;;;;;;;;;5068788;28;20060;-70
2022/08/11 06:15:51;;;;;;;5.57;1.65;;;;;;;;;;5036296;28;20508;-70
2022/08/11 06:18:23;;;;;;;3.20;1.48;;;;;;;;;;5052406;28;20711;-70
2022/08/11 06:20:59;;;;;;;4.38;1.48;;;;;;;;;;5048252;28;20052;-71
2022/08/11 06:23:33;;;;;;;3.13;1.25;;;;;;;;;;5032208;28;20067;-70
2022/08/11 06:26:12;;;;;;;4.50;1.40;;;;;;;;;;5048443;28;20057;-70
2022/08/11 06:28:44;;;;;;;2.08;1.00;;;;;;;;;;5048966;28;20452;-70
2022/08/11 06:31:17;;;;;;;;;;;;;;;;;;5032535;28;20409;-70
2022/08/11 06:34:03;;;;;;;4.97;1.83;;;;;;;;;;5028093;28;19921;-70
2022/08/11 06:37:17;;;;;;;7.60;2.08;;;;;;;;;;5012620;28;20064;-70
2022/08/11 06:39:51;;;;;;;4.10;1.88;;;;;;;;;;4956909;28;20078;-70
2022/08/11 06:42:31;;;;;;;7.70;1.83;;;;;;;;;;4973816;28;20054;-70
2022/08/11 06:45:20;;;;;;;4.55;1.70;;;;;;;;;;4956715;28;20069;-70
2022/08/11 06:47:51;;;;;;;5.25;1.85;;;;;;;;;;4988604;28;20065;-71
2022/08/11 06:53:16;;;;;;;3.97;1.83;;;;;;;;;;4989165;28;20569;-71
2022/08/11 07:01:57;;;;;;;4.63;1.85;;;;;;;;;;5028394;28;20663;-71
2022/08/11 07:04:51;;;;;;;5.00;1.60;;;;;;;;;;4934079;29;20484;-71
2022/08/11 07:16:19;;;;;;;5.47;1.45;;;;;;;;;;4992162;28;20823;-70
2022/08/11 07:30:48;;;;;;;3.85;1.75;;;;;;;;;;5008498;28;20065;-70
2022/08/11 07:33:30;;;;;;;3.45;1.50;;;;;;;;;;4992572;28;20054;-70
2022/08/11 07:36:24;;;;;;;3.42;1.95;;;;;;;;;;4991374;28;20054;-70
2022/08/11 07:38:57;;;;;;;3.05;1.60;;;;;;;;;;5008229;28;20050;-70
2022/08/11 07:41:33;;;;;;;4.05;1.63;;;;;;;;;;4996894;28;20592;-70
2022/08/11 07:44:10;;;;;;;7.18;1.77;;;;;;;;;;5027929;28;20061;-70
2022/08/11 07:52:32;;;;;;;10.52;2.22;;;;;;;;;;5028234;28;20065;-70
2022/08/11 07:55:16;;;;;;;7.35;1.67;;;;;;;;;;5011812;28;20068;-70
2022/08/11 08:18:06;;;;;;;3.90;2.03;;;;;;;;;;5093985;27;20040;-70
2022/08/11 08:21:18;;;;;;;3.28;1.80;;;;;;;;;;5134903;27;20047;-70
2022/08/11 08:23:47;;;;;;;4.28;1.80;;;;;;;;;;5134588;27;20371;-70
2022/08/11 08:32:11;;;;;;;3.35;1.95;;;;;;;;;;5090889;28;20055;-70
2022/08/11 08:34:42;;;;;;;3.45;2.00;;;;;;;;;;5091234;28;20056;-70
2022/08/11 08:37:14;;;;;;;3.58;1.85;;;;;;;;;;5091131;28;20487;-71
2022/08/11 08:40:09;;;;;;;3.78;1.92;;;;;;;;;;5110808;28;20048;-71
2022/08/11 08:42:54;;;;;;;3.25;1.75;;;;;;;;;;5111337;28;20535;-70
2022/08/11 08:45:26;;;;;;;7.07;1.92;;;;;;;;;;5111237;28;20545;-70
2022/08/11 08:48:07;;;;;;;3.05;1.42;;;;;;;;;;5077376;28;20517;-70
2022/08/11 08:53:40;;;;;;;4.22;1.75;;;;;;;;;;5077124;28;20051;-70
2022/08/11 08:56:27;;;;;;;3.40;1.80;;;;;;;;;;5066011;28;20074;-70
2022/08/11 08:59:00;;;;;;;5.70;1.80;;;;;;;;;;5110881;28;20058;-70
2022/08/11 09:01:45;;;;;;;2.90;1.33;;;;;;;;;;5110838;28;20419;-70
2022/08/11 09:04:19;;;;;;;6.90;1.90;;;;;;;;;;5111134;28;20169;-70
2022/08/11 09:06:50;;;;;;;4.15;2.10;;;;;;;;;;5110820;28;20492;-71
2022/08/11 09:09:22;;;;;;;3.88;1.80;;;;;;;;;;5110713;28;20043;-70
2022/08/11 09:11:54;;;;;;;3.50;1.77;;;;;;;;;;5110509;28;20063;-70
2022/08/11 09:17:36;;;;;;;8.93;1.67;;;;;;;;;;5077317;28;20553;-70
2022/08/11 09:20:11;;;;;;;3.05;1.63;;;;;;;;;;5090396;28;20067;-70
2022/08/11 09:28:48;;;;;;;4.60;1.95;;;;;;;;;;5012857;28;20062;-70
2022/08/11 09:31:21;;;;;;;2.58;1.70;;;;;;;;;;5089964;28;20048;-70
2022/08/11 09:33:54;;;;;;;3.97;1.80;;;;;;;;;;5073538;28;20051;-70
2022/08/11 09:42:04;;;;;;;7.70;1.75;;;;;;;;;;5089834;28;20056;-70
2022/08/11 09:44:49;;;;;;;4.07;1.65;;;;;;;;;;5089513;28;20175;-70
2022/08/11 09:47:23;;;;;;;3.88;2.00;;;;;;;;;;5056715;28;20569;-70
2022/08/11 09:49:58;;;;;;;2.75;1.58;;;;;;;;;;5049059;28;20053;-70
2022/08/11 09:52:40;;;;;;;4.78;2.00;;;;;;;;;;5049367;28;20064;-71
2022/08/11 09:55:33;;;;;;;3.35;1.65;;;;;;;;;;5076475;28;20059;-71
2022/08/11 09:58:12;;;;;;;3.80;1.75;;;;;;;;;;5089242;28;20052;-70
2022/08/11 10:01:06;;;;;;;4.50;2.00;;;;;;;;;;5089134;28;20059;-70
2022/08/11 10:03:41;;;;;;;6.53;2.17;;;;;;;;;;5039513;28;20052;-71
2022/08/11 10:09:05;;;;;;;5.95;3.08;;;;;;;;;;5089403;28;20060;-70
2022/08/11 10:11:37;;;;;;;5.72;2.65;;;;;;;;;;5012827;28;20054;-69
2022/08/11 10:17:10;;;;;;;11.50;3.10;;;;;;;;;;4941097;28;20054;-71
2022/08/11 10:19:43;;;;;;;7.13;3.20;;;;;;;;;;4970130;28;20607;-70
2022/08/11 10:28:32;;;;;;;6.35;3.20;;;;;;;;;;4966259;28;19934;-70
2022/08/11 10:34:27;;;;;;;9.35;3.85;;;;;;;;;;4969993;28;20058;-70
2022/08/11 10:37:02;;;;;;;8.27;3.80;;;;;;;;;;4969555;28;20065;-70
2022/08/11 10:39:35;;;;;;;10.18;4.00;;;;;;;;;;4954448;28;20061;-71
2022/08/11 10:48:08;;;;;;;8.50;3.65;;;;;;;;;;4970986;28;20066;-70
2022/08/11 10:59:26;;;;;;;15.35;4.18;;;;;;;;;;5131845;27;20043;-70
2022/08/11 11:02:00;;;;;;;9.65;3.53;;;;;;;;;;5070890;28;20420;-71
2022/08/11 11:04:56;;;;;;;8.30;4.13;;;;;;;;;;5038056;28;20048;-71
2022/08/11 11:07:42;;;;;;;9.00;3.97;;;;;;;;;;5054903;28;20060;-71
2022/08/11 11:10:12;;;;;;;6.75;3.58;;;;;;;;;;5088226;28;20055;-72
2022/08/11 11:18:36;;;;;;;7.95;4.22;;;;;;;;;;5088132;28;20044;-72
2022/08/11 11:21:09;;;;;;;9.77;3.90;;;;;;;;;;5088133;28;20527;-72
2022/08/11 11:24:01;;;;;;;10.43;5.68;;;;;;;;;;5088350;28;20036;-72
2022/08/11 11:26:43;;;;;;;8.82;4.90;;;;;;;;;;5088099;28;20059;-72
2022/08/11 11:29:31;;;;;;;9.90;5.60;;;;;;;;;;5087993;28;20040;-72
2022/08/11 11:32:04;;;;;;;14.15;6.03;;;;;;;;;;5087954;28;20054;-72
2022/08/11 11:34:58;;;;;;;11.30;5.40;;;;;;;;;;5055095;28;20048;-72
2022/08/11 11:37:36;;;;;;;7.15;4.20;;;;;;;;;;5051359;28;20049;-72
2022/08/11 11:40:14;;;;;;;8.70;4.15;;;;;;;;;;5065908;28;20079;-72
2022/08/11 11:42:45;;;;;;;10.18;4.60;;;;;;;;;;5072008;28;20064;-72
2022/08/11 11:45:21;;;;;;;9.75;4.47;;;;;;;;;;5051470;28;20052;-72
2022/08/11 11:47:55;;;;;;;10.52;5.75;;;;;;;;;;5051942;28;20072;-71
2022/08/11 11:50:35;;;;;;;15.57;8.27;;;;;;;;;;5011409;28;20046;-72
2022/08/11 11:53:09;;;;;;;18.92;9.35;;;;;;;;;;4979270;28;20046;-71
2022/08/11 11:55:40;;;;;;;30.90;14.70;;;;;;;;;;5011806;28;20065;-71
2022/08/11 12:01:19;;;;;;;67.65;33.10;;;;;;;;;;4958513;28;20058;-72
2022/08/11 12:03:52;;;;;;;18.55;7.78;;;;;;;;;;5011832;28;20058;-71
2022/08/11 12:06:26;;;;;;;11.18;6.10;;;;;;;;;;5011502;28;20053;-71
2022/08/11 12:08:59;;;;;;;19.02;7.57;;;;;;;;;;4962994;28;20574;-71
2022/08/11 12:14:20;;;;;;;10.88;6.30;;;;;;;;;;4980971;28;20068;-71
2022/08/11 12:16:51;;;;;;;17.67;8.63;;;;;;;;;;5031151;28;20098;-70
2022/08/11 12:19:27;;;;;;;14.15;6.63;;;;;;;;;;5031047;28;20076;-72
2022/08/11 12:27:41;;;;;;;15.07;7.40;;;;;;;;;;5023490;28;20057;-71
2022/08/11 12:30:13;;;;;;;13.75;5.60;;;;;;;;;;5034664;28;20053;-71
2022/08/11 12:32:44;;;;;;;13.50;5.70;;;;;;;;;;5050790;28;20064;-71
2022/08/11 12:35:15;;;;;;;11.65;5.15;;;;;;;;;;5050729;28;20183;-71
2022/08/11 12:37:53;;;;;;;10.77;5.43;;;;;;;;;;5017468;28;20096;-71
2022/08/11 12:46:36;;;;;;;9.32;5.32;;;;;;;;;;5049867;28;20159;-71
2022/08/11 12:52:07;;;;;;;10.48;5.43;;;;;;;;;;5080981;28;20052;-71
2022/08/11 12:55:12;;;;;;;8.63;4.10;;;;;;;;;;5090714;28;20466;-68
2022/08/11 13:06:24;;;;;;;8.60;4.50;;;;;;;;;;5070098;28;20056;-70
2022/08/11 13:08:58;;;;;;;8.38;3.78;;;;;;;;;;4996933;28;20053;-70
2022/08/11 13:14:26;;;;;;;15.77;8.38;;;;;;;;;;5029999;28;20064;-69
2022/08/11 13:19:47;;;;;;;10.23;5.53;;;;;;;;;;5029705;28;20056;-69
2022/08/11 13:22:19;;;;;;;9.60;5.18;;;;;;;;;;5009869;28;20060;-70
2022/08/11 13:24:53;;;;;;;8.70;4.97;;;;;;;;;;4990065;28;20054;-69
2022/08/11 13:27:25;;;;;;;10.63;3.90;;;;;;;;;;4990547;28;20069;-69
2022/08/11 13:31:09;;;;;;;6.50;3.35;;;;;;;;;;4957941;28;20062;-71
2022/08/11 13:32:46;;;;;;;8.75;3.83;;;;;;;;;;4990571;28;20477;-69
2022/08/11 13:35:17;;;;;;;8.38;4.30;;;;;;;;;;4970681;28;20051;-70
2022/08/11 13:37:50;;;;;;;6.00;2.78;;;;;;;;;;4944845;28;20070;-70
2022/08/11 13:40:41;;;;;;;6.05;3.53;;;;;;;;;;4990196;28;20061;-69
2022/08/11 13:43:25;;;;;;;8.85;4.13;;;;;;;;;;4941974;28;20089;-69
2022/08/11 13:46:19;;;;;;;11.05;4.13;;;;;;;;;;4990030;28;20058;-68
2022/08/11 13:48:46;;;;;;;30.15;13.48;;;;;;;;;;4957794;28;20564;-68
2022/08/11 13:54:20;;;;;;;7.03;3.60;;;;;;;;;;4970642;28;20066;-68
2022/08/11 13:56:59;;;;;;;6.13;3.45;;;;;;;;;;4975195;28;20088;-69
2022/08/11 13:59:29;;;;;;;4.93;2.85;;;;;;;;;;4973843;28;20542;-68
2022/08/11 14:02:16;;;;;;;7.05;3.58;;;;;;;;;;4989927;28;20061;-69
2022/08/11 14:05:16;;;;;;;6.65;2.90;;;;;;;;;;4989937;28;20418;-69
2022/08/11 14:08:01;;;;;;;8.68;3.30;;;;;;;;;;4989836;28;20047;-69
2022/08/11 14:10:34;;;;;;;5.32;2.88;;;;;;;;;;4973956;28;20046;-69
2022/08/11 14:16:17;;;;;;;2.83;1.40;;;;;;;;;;5028938;28;20057;-72
2022/08/11 14:18:53;;;;;;;2.63;0.98;;;;;;;;;;5028597;28;20061;-67
2022/08/11 14:24:16;;;;;;;1.30;0.90;;;;;;;;;;5015091;28;20053;-69
2022/08/11 14:26:50;;;;;;;2.17;1.35;;;;;;;;;;4996032;28;20057;-67
2022/08/11 14:29:22;;;;;;;3.10;1.27;;;;;;;;;;5055397;28;20048;-70
2022/08/11 14:31:56;;;;;;;;;;;;;;;;;;5088141;27;20549;-69
2022/08/11 14:34:30;;;;;;;3.83;1.40;;;;;;;;;;4995555;28;19928;-66
2022/08/11 14:37:05;;;;;;;2.05;0.85;;;;;;;;;;5028584;28;20537;-66
2022/08/11 14:39:42;;;;;;;2.78;1.15;;;;;;;;;;5028651;28;20054;-67
2022/08/11 14:48:17;;;;;;;6.63;1.70;;;;;;;;;;4988847;28;20541;-68
2022/08/11 14:50:47;;;;;;;3.10;0.90;;;;;;;;;;4989023;28;20418;-68
2022/08/11 14:53:21;;;;;;;1.85;1.30;;;;;;;;;;4989076;28;20625;-68
2022/08/11 14:58:43;;;;;;;2.15;1.25;;;;;;;;;;4937475;28;20055;-71
2022/08/11 15:04:03;;;;;;;3.78;1.88;;;;;;;;;;4969475;28;20050;-67
2022/08/11 15:06:53;;;;;;;5.53;1.83;;;;;;;;;;4956713;28;20059;-67
2022/08/11 15:09:25;;;;;;;1.88;1.15;;;;;;;;;;4953872;28;20058;-69
2022/08/11 15:12:17;;;;;;;4.78;1.45;;;;;;;;;;5011866;28;20075;-69
2022/08/11 15:17:58;;;;;;;2.58;1.75;;;;;;;;;;5067820;28;20067;-68
2022/08/11 15:37:56;;;;;;;2.08;1.13;;;;;;;;;;5088027;28;20550;-69
2022/08/11 15:46:30;;;;;;;2.58;1.17;;;;;;;;;;5088067;28;20044;-68
2022/08/11 15:49:07;;;;;;;2.03;1.13;;;;;;;;;;5054594;28;20060;-67
2022/08/11 15:51:48;;;;;;;2.65;1.38;;;;;;;;;;5088108;28;20179;-73
2022/08/11 15:54:26;;;;;;;2.13;1.38;;;;;;;;;;5087949;28;20060;-71
2022/08/11 15:57:00;;;;;;;2.95;1.40;;;;;;;;;;5071810;28;20067;-69
2022/08/11 16:05:17;;;;;;;2.00;1.20;;;;;;;;;;5027994;28;20057;-69
2022/08/11 16:08:08;;;;;;;2.30;1.40;;;;;;;;;;5066305;28;20057;-68
2022/08/11 16:10:43;;;;;;;1.90;1.20;;;;;;;;;;5051817;28;20519;-70
2022/08/11 16:18:45;;;;;;;4.00;1.10;;;;;;;;;;5047317;28;20053;-67
2022/08/11 16:21:42;;;;;;;2.22;1.20;;;;;;;;;;5049033;28;20057;-67
2022/08/11 16:24:14;;;;;;;2.75;1.42;;;;;;;;;;5051059;28;20045;-68
2022/08/11 16:27:10;;;;;;;1.80;1.15;;;;;;;;;;5051065;28;20071;-68
2022/08/11 16:29:45;;;;;;;2.50;1.23;;;;;;;;;;5050900;28;20049;-69
2022/08/11 16:32:22;;;;;;;2.15;1.45;;;;;;;;;;5030810;28;20099;-68
2022/08/11 16:40:41;;;;;;;5.68;2.35;;;;;;;;;;5060408;28;20048;-67
2022/08/11 16:49:37;;;;;;;1.98;1.33;;;;;;;;;;5030603;28;20065;-68
2022/08/11 16:52:10;;;;;;;1.60;1.20;;;;;;;;;;5030473;28;20505;-68
2022/08/11 16:54:42;;;;;;;3.22;1.02;;;;;;;;;;4981555;28;20049;-69
2022/08/11 17:00:12;;;;;;;2.78;1.30;;;;;;;;;;4997465;28;20053;-70
2022/08/11 17:14:25;;;;;;;2.70;1.45;;;;;;;;;;5049784;28;20053;-68
2022/08/11 17:17:07;;;;;;;1.17;0.90;;;;;;;;;;5009868;28;20057;-67
2022/08/11 17:19:47;;;;;;;1.30;1.00;;;;;;;;;;5025845;28;20061;-69
2022/08/11 17:25:31;;;;;;;3.67;1.00;;;;;;;;;;4975017;28;20059;-68
2022/08/11 17:28:22;;;;;;;1.70;1.05;;;;;;;;;;4951942;29;20051;-68
2022/08/11 17:36:43;;;;;;;2.22;1.15;;;;;;;;;;4970726;28;20055;-67
2022/08/11 17:39:15;;;;;;;4.30;1.90;;;;;;;;;;4970352;28;20055;-70
2022/08/11 17:50:16;;;;;;;1.00;0.70;;;;;;;;;;4951137;29;20459;-67
2022/08/11 18:01:18;;;;;;;1.70;1.10;;;;;;;;;;4931592;29;20051;-66
2022/08/11 18:03:51;;;;;;;6.53;2.42;;;;;;;;;;4932006;29;20063;-68
2022/08/11 18:06:30;;;;;;;3.05;1.60;;;;;;;;;;4931858;29;20071;-68
